Arnots Addition, Pennsylvania
Current Conditions -  °F | °C
As of 2:55 AM on Thursday 27 Nov 2014 (Local Time) from KHZL Reporting Station
Light Snow Light Snow  
Wind Chill: -5°   Ceiling: 1300
Heat Index: -1°   Visibility: 7mi
Dew Point: -2°   Wind: 7mph
Humidity: 93%   Direction: 290°WNW
Pressure: 29.92"   Gusts: NA
Location:  40.7406°N, 76.2241°W
Report Text: KHZL 270755Z AUTO 29006KT 7SM -SN SCT003 SCT009 OVC013 M01/M02 A2992 RMK AO2
Loading
Personal Weather Stations






























Interactive Weather Map New forecast layout! Learn more

10-Day Weather Forecast

Advertisements
Track Severe Weather on mobile